createdAt,value
2023-02-19T00:02:35.603Z,2.40
2023-02-19T00:05:21.024Z,2.40
2023-02-19T00:08:06.352Z,1.43
2023-02-19T00:10:51.698Z,1.63
2023-02-19T00:13:39.070Z,2.03
2023-02-19T00:16:27.412Z,1.67
2023-02-19T00:19:15.835Z,2.23
2023-02-19T00:22:01.271Z,3.00
2023-02-19T00:24:48.407Z,2.83
2023-02-19T00:27:34.827Z,2.43
2023-02-19T00:30:20.352Z,1.33
2023-02-19T00:33:05.636Z,2.70
2023-02-19T00:35:51.066Z,1.13
2023-02-19T00:38:37.811Z,1.60
2023-02-19T00:41:24.380Z,1.60
2023-02-19T00:44:11.445Z,2.00
2023-02-19T00:46:56.726Z,1.70
2023-02-19T00:49:41.994Z,2.00
2023-02-19T00:52:27.326Z,2.50
2023-02-19T00:55:12.593Z,2.07
2023-02-19T00:57:57.904Z,1.63
2023-02-19T01:00:43.046Z,2.53
2023-02-19T01:03:28.673Z,1.30
2023-02-19T01:06:16.247Z,1.07
2023-02-19T01:09:01.950Z,1.73
2023-02-19T01:11:47.738Z,2.17
2023-02-19T01:14:34.041Z,1.33
2023-02-19T01:17:19.271Z,1.57
2023-02-19T01:20:05.065Z,1.37
2023-02-19T01:22:50.504Z,1.70
2023-02-19T01:25:39.209Z,2.47
2023-02-19T01:28:24.524Z,1.53
2023-02-19T01:31:14.077Z,2.07
2023-02-19T01:34:02.189Z,1.67
2023-02-19T01:36:47.597Z,1.20
2023-02-19T01:39:32.763Z,7.83
2023-02-19T01:42:18.294Z,1.77
2023-02-19T01:45:25.517Z,1.10
2023-02-19T01:48:35.578Z,1.80
2023-02-19T01:51:22.367Z,2.00
2023-02-19T01:54:11.824Z,2.20
2023-02-19T01:56:58.498Z,2.53
2023-02-19T01:59:44.538Z,2.20
2023-02-19T02:02:30.197Z,1.50
2023-02-19T02:05:29.928Z,1.70
2023-02-19T02:08:36.126Z,2.07
2023-02-19T02:11:21.835Z,1.43
2023-02-19T02:14:07.012Z,2.00
2023-02-19T02:17:02.038Z,1.30
2023-02-19T02:20:15.447Z,1.83
2023-02-19T02:23:26.567Z,1.27
2023-02-19T02:26:36.240Z,1.20
2023-02-19T02:30:05.105Z,1.90
2023-02-19T02:32:53.483Z,0.63
2023-02-19T02:35:46.313Z,1.50
2023-02-19T02:38:35.175Z,1.07
2023-02-19T02:41:21.272Z,1.10
2023-02-19T02:44:06.519Z,3.17
2023-02-19T02:46:51.977Z,1.47
2023-02-19T02:49:58.330Z,1.23
2023-02-19T02:53:05.015Z,3.00
2023-02-19T02:55:53.342Z,1.03
2023-02-19T02:58:39.178Z,1.83
2023-02-19T03:01:51.710Z,2.00
2023-02-19T03:05:08.466Z,0.90
2023-02-19T03:08:00.643Z,0.90
2023-02-19T03:10:55.707Z,0.90
2023-02-19T03:13:59.870Z,1.10
2023-02-19T03:17:06.540Z,1.27
2023-02-19T03:19:56.235Z,1.00
2023-02-19T03:22:44.821Z,1.03
2023-02-19T03:25:52.692Z,1.17
2023-02-19T03:29:10.314Z,1.40
2023-02-19T03:32:06.258Z,1.10
2023-02-19T03:34:57.079Z,0.52
2023-02-19T03:37:49.682Z,0.80
2023-02-19T03:40:43.949Z,1.47
2023-02-19T03:43:32.539Z,0.80
2023-02-19T03:46:34.051Z,0.97
2023-02-19T03:49:35.275Z,0.90
2023-02-19T03:52:43.301Z,0.73
2023-02-19T03:55:37.862Z,0.80
2023-02-19T03:58:32.217Z,1.23
2023-02-19T04:01:28.441Z,0.70
2023-02-19T04:04:21.253Z,0.90
2023-02-19T04:07:06.834Z,1.38
2023-02-19T04:09:55.389Z,0.73
2023-02-19T04:12:45.937Z,1.47
2023-02-19T04:15:34.405Z,1.30
2023-02-19T04:18:25.697Z,1.40
2023-02-19T04:21:12.067Z,1.47
2023-02-19T04:24:02.585Z,1.20
2023-02-19T04:26:48.281Z,1.23
2023-02-19T04:29:33.837Z,0.83
2023-02-19T04:32:19.158Z,1.63
2023-02-19T04:35:04.538Z,1.30
2023-02-19T04:37:50.100Z,1.30
2023-02-19T04:40:35.499Z,2.73
2023-02-19T04:43:21.109Z,1.07
2023-02-19T04:46:07.013Z,1.50
2023-02-19T04:48:52.327Z,0.90
2023-02-19T04:51:39.065Z,2.43
2023-02-19T04:54:24.980Z,1.40
2023-02-19T04:57:10.209Z,0.83
2023-02-19T04:59:55.444Z,0.87
2023-02-19T05:05:18.600Z,0.93
2023-02-19T05:08:03.618Z,0.87
2023-02-19T05:10:48.443Z,0.50
2023-02-19T05:13:33.815Z,1.47
2023-02-19T05:16:18.300Z,0.70
2023-02-19T05:19:02.910Z,0.53
2023-02-19T05:21:48.168Z,1.07
2023-02-19T05:24:33.818Z,1.27
2023-02-19T05:27:19.078Z,0.77
2023-02-19T05:30:04.595Z,0.80
2023-02-19T05:32:50.289Z,1.03
2023-02-19T05:35:48.100Z,1.13
2023-02-19T05:38:33.635Z,0.50
2023-02-19T05:41:22.663Z,2.10
2023-02-19T05:44:10.672Z,1.03
2023-02-19T05:46:56.247Z,1.10
2023-02-19T05:49:41.441Z,1.17
2023-02-19T05:52:26.715Z,1.60
2023-02-19T05:55:12.358Z,0.93
2023-02-19T05:57:57.896Z,1.03
2023-02-19T06:00:43.061Z,2.07
2023-02-19T06:03:28.230Z,1.03
2023-02-19T06:06:15.308Z,1.90
2023-02-19T06:09:00.925Z,0.60
2023-02-19T06:11:46.692Z,0.57
2023-02-19T06:14:32.186Z,2.20
2023-02-19T06:17:18.584Z,2.27
2023-02-19T06:20:03.974Z,1.07
2023-02-19T06:22:52.434Z,1.90
2023-02-19T06:25:37.856Z,2.23
2023-02-19T06:28:23.254Z,1.33
2023-02-19T06:31:09.827Z,0.50
2023-02-19T06:33:55.529Z,2.40
2023-02-19T06:36:40.814Z,3.07
2023-02-19T06:39:26.811Z,1.27
2023-02-19T06:42:12.637Z,2.00
2023-02-19T06:44:58.135Z,2.90
2023-02-19T06:47:43.347Z,2.13
2023-02-19T06:50:28.777Z,0.70
2023-02-19T06:53:14.136Z,1.33
2023-02-19T06:56:08.538Z,1.83
2023-02-19T06:58:56.572Z,1.77
2023-02-19T07:01:43.470Z,4.37
2023-02-19T07:04:28.972Z,0.77
2023-02-19T07:07:14.241Z,0.80
2023-02-19T07:09:59.536Z,0.70
2023-02-19T07:12:44.935Z,1.70
2023-02-19T07:15:30.344Z,2.20
2023-02-19T07:18:15.661Z,1.67
2023-02-19T07:21:10.627Z,0.30
2023-02-19T07:23:56.630Z,1.80
2023-02-19T07:34:29.584Z,4.03
2023-02-19T07:37:14.376Z,2.17
2023-02-19T07:39:59.201Z,4.00
2023-02-19T07:42:44.305Z,3.03
2023-02-19T07:45:29.005Z,5.10
2023-02-19T07:48:14.561Z,2.40
2023-02-19T07:51:00.684Z,3.00
2023-02-19T07:53:47.060Z,4.17
2023-02-19T07:56:32.300Z,1.50
2023-02-19T07:59:19.449Z,1.63
2023-02-19T08:02:23.575Z,2.97
2023-02-19T08:05:08.887Z,1.17
2023-02-19T08:07:54.332Z,2.70
2023-02-19T08:10:59.385Z,4.63
2023-02-19T08:13:44.672Z,1.53
2023-02-19T08:16:42.578Z,2.90
2023-02-19T08:19:28.488Z,2.20
2023-02-19T08:22:16.279Z,3.53
2023-02-19T08:25:01.692Z,2.00
2023-02-19T08:27:46.973Z,2.20
2023-02-19T08:30:33.630Z,4.83
2023-02-19T08:33:21.809Z,2.33
2023-02-19T08:36:09.443Z,2.20
2023-02-19T08:38:54.830Z,3.90
2023-02-19T08:41:40.015Z,2.67
2023-02-19T08:44:25.217Z,2.20
2023-02-19T08:47:10.501Z,2.27
2023-02-19T08:49:56.023Z,4.17
2023-02-19T08:52:41.193Z,2.73
2023-02-19T08:55:27.077Z,2.40
2023-02-19T08:58:12.580Z,2.33
2023-02-19T09:00:57.967Z,2.40
2023-02-19T09:03:43.308Z,3.33
2023-02-19T09:06:28.886Z,2.50
2023-02-19T09:09:14.043Z,2.20
2023-02-19T09:11:59.834Z,4.67
2023-02-19T09:14:45.248Z,8.33
2023-02-19T09:17:30.556Z,5.23
2023-02-19T09:20:15.849Z,3.20
2023-02-19T09:23:01.307Z,4.83
2023-02-19T09:25:46.638Z,4.33
2023-02-19T09:28:31.903Z,8.13
2023-02-19T09:31:17.369Z,6.50
2023-02-19T09:34:03.160Z,7.03
2023-02-19T09:36:50.112Z,6.30
2023-02-19T09:39:35.919Z,8.87
2023-02-19T09:42:29.847Z,8.77
2023-02-19T09:45:23.045Z,5.60
2023-02-19T09:50:57.317Z,9.67
2023-02-19T09:53:46.620Z,7.30
2023-02-19T09:56:43.712Z,7.93
2023-02-19T09:59:35.905Z,7.07
2023-02-19T10:02:24.325Z,4.80
2023-02-19T10:05:14.850Z,7.43
2023-02-19T10:08:00.626Z,8.83
2023-02-19T10:10:46.117Z,5.27
2023-02-19T10:14:12.795Z,6.30
2023-02-19T10:17:03.278Z,5.53
2023-02-19T10:19:48.879Z,7.03
2023-02-19T10:22:36.559Z,5.87
2023-02-19T10:25:22.159Z,5.30
2023-02-19T10:28:14.925Z,5.40
2023-02-19T10:31:03.287Z,5.30
2023-02-19T10:33:57.052Z,4.37
2023-02-19T10:36:45.205Z,4.47
2023-02-19T10:39:30.261Z,5.50
2023-02-19T10:42:21.703Z,5.97
2023-02-19T10:45:18.765Z,7.10
2023-02-19T10:48:05.798Z,6.07
2023-02-19T10:50:58.194Z,5.40
2023-02-19T10:53:49.145Z,6.77
2023-02-19T10:56:34.697Z,8.37
2023-02-19T10:59:28.728Z,7.27
2023-02-19T11:02:20.105Z,5.43
2023-02-19T11:05:12.148Z,9.00
2023-02-19T11:07:57.547Z,5.47
2023-02-19T11:10:48.227Z,7.33
2023-02-19T11:13:38.028Z,8.13
2023-02-19T11:16:36.729Z,4.00
2023-02-19T11:19:22.494Z,4.70
2023-02-19T11:22:32.167Z,7.43
2023-02-19T11:25:17.805Z,4.43
2023-02-19T11:28:20.638Z,5.97
2023-02-19T11:31:24.266Z,5.07
2023-02-19T11:34:21.211Z,6.13
2023-02-19T11:37:13.446Z,3.83
2023-02-19T11:39:58.837Z,6.43
2023-02-19T11:43:03.744Z,6.63
2023-02-19T11:45:55.781Z,4.27
2023-02-19T11:48:59.640Z,5.87
2023-02-19T11:57:43.831Z,3.90
2023-02-19T12:00:30.990Z,6.77
2023-02-19T12:03:35.590Z,7.23
2023-02-19T12:06:27.095Z,7.63
2023-02-19T12:09:33.178Z,9.63
2023-02-19T12:13:00.580Z,10.33
2023-02-19T12:16:08.310Z,7.93
2023-02-19T12:18:59.724Z,8.97
2023-02-19T12:22:09.723Z,6.67
2023-02-19T12:25:07.314Z,6.80
2023-02-19T12:27:55.899Z,8.73
2023-02-19T12:30:58.566Z,9.33
2023-02-19T12:33:59.082Z,7.38
2023-02-19T12:36:56.511Z,7.90
2023-02-19T12:39:55.953Z,10.30
2023-02-19T12:42:59.804Z,7.40
2023-02-19T12:45:49.043Z,5.73
2023-02-19T12:48:43.121Z,12.37
2023-02-19T12:51:43.670Z,28.40
2023-02-19T12:54:42.287Z,43.27
2023-02-19T12:57:33.171Z,101.40
2023-02-19T13:00:22.141Z,105.97
2023-02-19T13:03:21.037Z,90.67
2023-02-19T13:06:16.869Z,77.70
2023-02-19T13:09:14.360Z,65.23
2023-02-19T13:12:07.782Z,75.30
2023-02-19T13:15:05.331Z,88.55
2023-02-19T13:17:55.336Z,97.97
2023-02-19T13:20:43.443Z,95.20
2023-02-19T13:23:49.670Z,89.80
2023-02-19T13:26:44.404Z,81.73
2023-02-19T13:29:53.403Z,78.37
2023-02-19T13:33:11.844Z,72.77
2023-02-19T13:36:06.391Z,71.77
2023-02-19T13:38:52.201Z,68.83
2023-02-19T13:42:02.637Z,67.57
2023-02-19T13:44:48.483Z,64.23
2023-02-19T13:47:49.338Z,62.00
2023-02-19T13:50:35.041Z,59.10
2023-02-19T13:53:45.247Z,60.40
2023-02-19T13:56:31.385Z,55.23
2023-02-19T13:59:25.598Z,54.10
2023-02-19T14:02:28.870Z,54.97
2023-02-19T14:05:14.324Z,52.75
2023-02-19T14:07:59.867Z,49.77
2023-02-19T14:11:02.510Z,51.53
2023-02-19T14:13:51.745Z,47.63
2023-02-19T14:16:40.469Z,46.93
2023-02-19T14:19:46.441Z,45.70
2023-02-19T14:22:52.119Z,45.50
2023-02-19T14:25:53.424Z,43.30
2023-02-19T14:28:46.005Z,45.63
2023-02-19T14:31:36.559Z,42.53
2023-02-19T14:34:27.156Z,42.87
2023-02-19T14:37:21.702Z,42.67
2023-02-19T14:40:07.653Z,40.90
2023-02-19T14:42:57.270Z,39.20
2023-02-19T14:45:47.377Z,38.37
2023-02-19T14:48:38.224Z,38.33
2023-02-19T14:51:40.111Z,35.87
2023-02-19T14:54:57.824Z,36.07
2023-02-19T14:57:49.035Z,32.63
2023-02-19T15:00:39.865Z,34.93
2023-02-19T15:03:37.141Z,33.57
2023-02-19T15:06:24.449Z,32.33
2023-02-19T15:09:09.846Z,31.40
2023-02-19T15:11:57.087Z,32.70
2023-02-19T15:14:44.226Z,30.47
2023-02-19T15:17:32.372Z,33.73
2023-02-19T15:20:25.616Z,28.90
2023-02-19T15:23:18.921Z,27.30
2023-02-19T15:29:11.292Z,29.57
2023-02-19T15:31:58.906Z,28.27
2023-02-19T15:34:57.582Z,27.57
2023-02-19T15:37:42.968Z,27.33
2023-02-19T15:40:32.447Z,26.77
2023-02-19T15:43:25.129Z,27.17
2023-02-19T15:46:20.254Z,27.67
2023-02-19T15:49:16.138Z,26.53
2023-02-19T15:52:09.164Z,25.77
2023-02-19T15:55:04.628Z,25.77
2023-02-19T15:57:58.512Z,25.27
2023-02-19T16:00:52.097Z,24.87
2023-02-19T16:03:38.143Z,24.30
2023-02-19T16:06:25.017Z,24.13
2023-02-19T16:09:20.997Z,23.83
2023-02-19T16:12:24.649Z,24.90
2023-02-19T16:18:05.017Z,23.23
2023-02-19T16:20:50.277Z,22.00
2023-02-19T16:23:35.933Z,22.47
2023-02-19T16:26:21.961Z,20.27
2023-02-19T16:29:19.419Z,19.67
2023-02-19T16:32:16.937Z,20.73
2023-02-19T16:35:02.357Z,27.13
2023-02-19T16:37:58.431Z,19.10
2023-02-19T16:40:54.156Z,20.73
2023-02-19T16:43:42.230Z,19.97
2023-02-19T16:46:27.654Z,20.03
2023-02-19T16:49:13.051Z,20.27
2023-02-19T16:52:02.139Z,17.17
2023-02-19T16:54:49.702Z,22.27
2023-02-19T16:57:35.261Z,16.63
2023-02-19T17:00:22.115Z,19.30
2023-02-19T17:03:11.501Z,18.83
2023-02-19T17:05:57.021Z,18.87
2023-02-19T17:08:44.265Z,20.43
2023-02-19T17:11:29.522Z,18.37
2023-02-19T17:14:14.875Z,15.63
2023-02-19T17:17:01.979Z,14.13
2023-02-19T17:19:48.516Z,15.50
2023-02-19T17:22:34.679Z,15.30
2023-02-19T17:25:20.186Z,14.20
2023-02-19T17:28:05.718Z,13.83
2023-02-19T17:30:50.899Z,15.17
2023-02-19T17:33:37.139Z,17.00
2023-02-19T17:36:31.215Z,13.87
2023-02-19T17:39:16.638Z,14.40
2023-02-19T17:42:01.952Z,15.30
2023-02-19T17:44:47.585Z,11.67
2023-02-19T17:47:32.939Z,14.57
2023-02-19T17:50:21.617Z,11.77
2023-02-19T17:53:07.737Z,12.97
2023-02-19T17:55:52.945Z,12.13
2023-02-19T17:58:38.170Z,9.97
2023-02-19T18:01:24.098Z,11.40
2023-02-19T18:04:09.427Z,9.20
2023-02-19T18:06:55.896Z,11.27
2023-02-19T18:09:41.757Z,8.87
2023-02-19T18:12:28.416Z,10.87
2023-02-19T18:15:20.956Z,10.50
2023-02-19T18:18:06.272Z,11.48
2023-02-19T18:20:51.989Z,7.83
2023-02-19T18:23:37.782Z,7.37
2023-02-19T18:26:24.654Z,7.30
2023-02-19T18:29:10.442Z,8.57
2023-02-19T18:31:56.352Z,7.33
2023-02-19T18:34:41.312Z,6.83
2023-02-19T18:37:27.900Z,7.37
2023-02-19T18:40:13.526Z,7.70
2023-02-19T18:42:59.608Z,6.40
2023-02-19T18:45:46.566Z,6.10
2023-02-19T18:48:32.384Z,6.60
2023-02-19T18:51:17.939Z,10.97
2023-02-19T18:54:04.104Z,7.93
2023-02-19T18:56:49.949Z,7.93
2023-02-19T18:59:35.534Z,7.60
2023-02-19T19:02:20.825Z,6.03
2023-02-19T19:05:06.446Z,8.40
2023-02-19T19:07:54.201Z,5.97
2023-02-19T19:10:39.679Z,6.17
2023-02-19T19:13:25.496Z,6.67
2023-02-19T19:16:11.146Z,7.87
2023-02-19T19:18:57.101Z,6.13
2023-02-19T19:21:43.116Z,5.17
2023-02-19T19:24:28.631Z,8.27
2023-02-19T19:27:14.369Z,6.90
2023-02-19T19:30:01.628Z,6.20
2023-02-19T19:32:52.169Z,9.73
2023-02-19T19:35:37.634Z,4.67
2023-02-19T19:38:22.805Z,4.60
2023-02-19T19:41:08.119Z,9.37
2023-02-19T19:43:53.438Z,7.10
2023-02-19T19:46:45.635Z,6.17
2023-02-19T19:49:31.330Z,6.60
2023-02-19T19:52:16.681Z,4.60
2023-02-19T19:55:02.114Z,6.40
2023-02-19T19:57:49.644Z,7.30
2023-02-19T20:00:35.191Z,5.40
2023-02-19T20:03:21.562Z,4.67
2023-02-19T20:06:07.178Z,5.23
2023-02-19T20:08:52.444Z,5.20
2023-02-19T20:11:49.797Z,4.00
2023-02-19T20:14:37.765Z,6.13
2023-02-19T20:17:27.281Z,4.97
2023-02-19T20:20:12.878Z,5.63
2023-02-19T20:22:58.381Z,5.70
2023-02-19T20:25:43.471Z,4.67
2023-02-19T20:28:28.676Z,4.53
2023-02-19T20:31:14.307Z,4.53
2023-02-19T20:34:00.556Z,4.73
2023-02-19T20:36:47.563Z,3.83
2023-02-19T20:39:34.627Z,8.10
2023-02-19T20:42:19.955Z,5.87
2023-02-19T20:45:06.012Z,7.70
2023-02-19T20:47:51.652Z,5.60
2023-02-19T20:50:36.871Z,5.70
2023-02-19T20:53:22.151Z,6.33
2023-02-19T20:56:07.629Z,9.37
2023-02-19T20:58:52.927Z,6.33
2023-02-19T21:01:38.254Z,6.27
2023-02-19T21:04:23.871Z,4.83
2023-02-19T21:07:09.342Z,5.20
2023-02-19T21:09:54.834Z,5.77
2023-02-19T21:12:41.919Z,5.77
2023-02-19T21:15:27.400Z,6.03
2023-02-19T21:18:12.644Z,6.07
2023-02-19T21:20:57.828Z,5.10
2023-02-19T21:23:43.209Z,5.50
2023-02-19T21:26:36.941Z,5.20
2023-02-19T21:29:22.686Z,5.10
2023-02-19T21:32:08.088Z,5.30
2023-02-19T21:34:53.937Z,5.97
2023-02-19T21:37:42.277Z,6.80
2023-02-19T21:40:29.772Z,5.67
2023-02-19T21:43:15.211Z,5.40
2023-02-19T21:46:00.578Z,5.77
2023-02-19T21:48:53.194Z,5.37
2023-02-19T21:51:43.668Z,6.07
2023-02-19T21:54:29.161Z,3.97
2023-02-19T21:57:14.393Z,4.40
2023-02-19T21:59:59.707Z,4.53
2023-02-19T22:02:45.141Z,4.70
2023-02-19T22:05:30.329Z,6.33
2023-02-19T22:08:17.401Z,3.57
2023-02-19T22:11:02.938Z,5.37
2023-02-19T22:13:48.252Z,5.43
2023-02-19T22:16:33.540Z,6.60
2023-02-19T22:19:18.787Z,4.10
2023-02-19T22:22:04.484Z,3.83
2023-02-19T22:24:49.420Z,3.63
2023-02-19T22:27:34.808Z,4.90
2023-02-19T22:30:20.289Z,7.80
2023-02-19T22:33:05.964Z,3.87
2023-02-19T22:35:51.389Z,3.57
2023-02-19T22:38:36.724Z,4.10
2023-02-19T22:41:22.631Z,4.03
2023-02-19T22:44:09.953Z,7.00
2023-02-19T22:46:56.556Z,4.30
2023-02-19T22:49:43.805Z,4.47
2023-02-19T22:52:29.170Z,3.80
2023-02-19T22:55:15.675Z,4.10
2023-02-19T22:58:01.174Z,5.53
2023-02-19T23:00:46.607Z,5.10
2023-02-19T23:03:32.168Z,7.30
2023-02-19T23:06:21.505Z,3.57
2023-02-19T23:09:13.948Z,3.70
2023-02-19T23:12:08.217Z,4.63
2023-02-19T23:14:53.571Z,4.27
2023-02-19T23:17:38.871Z,4.77
2023-02-19T23:20:24.269Z,4.10
2023-02-19T23:23:09.398Z,4.43
2023-02-19T23:25:54.618Z,3.57
2023-02-19T23:28:41.092Z,4.90
2023-02-19T23:31:26.988Z,5.67
2023-02-19T23:34:12.775Z,6.97
2023-02-19T23:37:00.177Z,4.23
2023-02-19T23:39:45.497Z,5.17
2023-02-19T23:42:31.502Z,3.23
2023-02-19T23:45:17.112Z,5.10
2023-02-19T23:48:02.324Z,3.60
2023-02-19T23:50:47.523Z,4.70
2023-02-19T23:53:32.840Z,4.20
2023-02-19T23:56:25.597Z,3.43
2023-02-19T23:59:10.922Z,4.70
